createdAt,value
2022-08-17T00:01:51.431Z,29.11
2022-08-17T00:04:19.769Z,28.95
2022-08-17T00:06:49.276Z,29.11
2022-08-17T00:09:18.972Z,29.09
2022-08-17T00:12:35.081Z,29.10
2022-08-17T00:14:35.096Z,29.09
2022-08-17T00:17:03.683Z,29.09
2022-08-17T00:19:30.615Z,29.17
2022-08-17T00:22:34.963Z,29.19
2022-08-17T00:24:47.477Z,29.08
2022-08-17T00:27:14.040Z,29.09
2022-08-17T00:29:40.645Z,29.10
2022-08-17T00:33:15.012Z,29.08
2022-08-17T00:34:53.780Z,29.10
2022-08-17T00:37:20.417Z,29.05
2022-08-17T00:39:47.069Z,29.01
2022-08-17T00:42:17.241Z,29.03
2022-08-17T00:44:45.027Z,29.03
2022-08-17T00:47:13.301Z,29.02
2022-08-17T00:49:39.997Z,28.99
2022-08-17T00:52:15.441Z,28.91
2022-08-17T00:54:46.833Z,28.87
2022-08-17T00:57:35.308Z,28.87
2022-08-17T01:00:19.540Z,28.78
2022-08-17T01:02:47.919Z,28.77
2022-08-17T01:05:19.359Z,28.79
2022-08-17T01:07:50.599Z,28.69
2022-08-17T01:10:57.350Z,28.58
2022-08-17T01:13:10.192Z,28.05
2022-08-17T01:15:40.875Z,28.34
2022-08-17T01:18:10.684Z,28.25
2022-08-17T01:20:48.457Z,28.45
2022-08-17T01:23:20.802Z,28.27
2022-08-17T01:25:57.424Z,28.14
2022-08-17T01:28:33.500Z,28.13
2022-08-17T01:31:13.601Z,27.92
2022-08-17T01:33:40.261Z,28.12
2022-08-17T01:36:07.794Z,28.24
2022-08-17T01:38:36.106Z,28.24
2022-08-17T01:41:08.300Z,28.26
2022-08-17T01:43:44.280Z,28.24
2022-08-17T01:46:16.085Z,28.37
2022-08-17T01:48:43.566Z,28.35
2022-08-17T01:51:10.702Z,28.35
2022-08-17T01:53:42.226Z,28.23
2022-08-17T01:56:12.099Z,28.39
2022-08-17T01:58:41.010Z,28.38
2022-08-17T02:01:10.079Z,28.48
2022-08-17T02:03:37.872Z,28.47
2022-08-17T02:06:06.279Z,28.20
2022-08-17T02:09:02.795Z,28.07
2022-08-17T02:11:37.775Z,28.32
2022-08-17T02:14:06.673Z,28.30
2022-08-17T02:16:37.357Z,28.37
2022-08-17T02:19:12.891Z,28.33
2022-08-17T02:21:41.345Z,28.42
2022-08-17T02:24:10.995Z,28.35
2022-08-17T02:26:37.739Z,28.40
2022-08-17T02:29:04.451Z,28.44
2022-08-17T02:31:31.018Z,28.41
2022-08-17T02:34:04.487Z,28.36
2022-08-17T02:36:34.427Z,28.39
2022-08-17T02:39:06.761Z,28.39
2022-08-17T02:41:33.732Z,28.39
2022-08-17T02:44:00.346Z,28.40
2022-08-17T02:46:26.919Z,28.16
2022-08-17T02:48:53.630Z,28.26
2022-08-17T02:51:20.287Z,28.26
2022-08-17T02:53:46.888Z,28.24
2022-08-17T02:56:13.684Z,28.03
2022-08-17T02:58:40.618Z,28.18
2022-08-17T03:01:09.097Z,28.18
2022-08-17T03:03:36.939Z,28.08
2022-08-17T03:06:04.536Z,28.13
2022-08-17T03:08:31.506Z,27.89
2022-08-17T03:10:58.167Z,27.74
2022-08-17T03:13:24.979Z,27.82
2022-08-17T03:15:51.730Z,27.97
2022-08-17T03:18:25.714Z,27.99
2022-08-17T03:20:58.255Z,27.91
2022-08-17T03:23:27.310Z,27.82
2022-08-17T03:25:55.823Z,27.51
2022-08-17T03:28:23.513Z,27.44
2022-08-17T03:30:51.319Z,27.49
2022-08-17T03:33:18.646Z,27.36
2022-08-17T03:35:45.404Z,27.00
2022-08-17T03:38:15.155Z,26.84
2022-08-17T03:40:58.703Z,26.89
2022-08-17T03:43:32.653Z,26.94
2022-08-17T03:46:28.691Z,26.55
2022-08-17T03:49:26.000Z,26.42
2022-08-17T03:52:15.860Z,26.36
2022-08-17T03:55:02.802Z,26.26
2022-08-17T03:57:31.373Z,26.32
2022-08-17T03:59:58.038Z,26.32
2022-08-17T04:02:28.409Z,26.19
2022-08-17T04:04:55.068Z,26.22
2022-08-17T04:07:24.553Z,26.39
2022-08-17T04:09:51.180Z,26.31
2022-08-17T04:12:20.279Z,26.24
2022-08-17T04:14:52.930Z,26.08
2022-08-17T04:17:26.874Z,26.31
2022-08-17T04:19:54.603Z,26.31
2022-08-17T04:22:33.099Z,26.42
2022-08-17T04:25:16.420Z,26.50
2022-08-17T04:27:43.226Z,26.66
2022-08-17T04:30:11.151Z,26.83
2022-08-17T04:33:13.929Z,27.09
2022-08-17T04:35:45.814Z,27.18
2022-08-17T04:38:18.512Z,27.09
2022-08-17T04:41:04.471Z,27.14
2022-08-17T04:43:32.517Z,27.27
2022-08-17T04:46:08.167Z,27.03
2022-08-17T04:48:38.350Z,27.20
2022-08-17T04:51:17.223Z,27.12
2022-08-17T04:53:45.912Z,27.53
2022-08-17T04:56:21.144Z,27.46
2022-08-17T04:58:50.278Z,27.31
2022-08-17T05:01:23.284Z,27.15
2022-08-17T05:03:52.557Z,27.46
2022-08-17T05:06:19.413Z,27.24
2022-08-17T05:08:46.028Z,27.24
2022-08-17T05:11:12.583Z,27.25
2022-08-17T05:13:39.181Z,27.72
2022-08-17T05:16:06.078Z,28.75
2022-08-17T05:18:32.783Z,29.62
2022-08-17T05:20:59.370Z,30.96
2022-08-17T05:23:34.945Z,31.94
2022-08-17T05:26:15.217Z,32.81
2022-08-17T05:28:52.594Z,33.36
2022-08-17T05:31:20.854Z,34.17
2022-08-17T05:33:47.426Z,34.83
2022-08-17T05:36:42.576Z,35.13
2022-08-17T05:39:03.592Z,36.11
2022-08-17T05:41:30.137Z,36.34
2022-08-17T05:43:56.918Z,36.84
2022-08-17T05:46:26.684Z,37.03
2022-08-17T05:48:58.151Z,37.29
2022-08-17T05:51:43.155Z,38.06
2022-08-17T05:54:23.052Z,38.78
2022-08-17T05:57:27.423Z,39.48
2022-08-17T06:00:04.471Z,39.16
2022-08-17T06:03:04.461Z,39.07
2022-08-17T06:05:48.416Z,39.19
2022-08-17T06:08:29.651Z,39.11
2022-08-17T06:11:16.373Z,39.06
2022-08-17T06:14:08.357Z,39.22
2022-08-17T06:16:41.059Z,39.76
2022-08-17T06:19:39.421Z,40.09
2022-08-17T06:22:11.924Z,40.35
2022-08-17T06:25:11.250Z,40.78
2022-08-17T06:27:59.375Z,41.19
2022-08-17T06:30:57.350Z,41.54
2022-08-17T06:33:22.218Z,41.84
2022-08-17T06:36:02.942Z,42.56
2022-08-17T06:38:53.185Z,42.36
2022-08-17T06:41:49.409Z,41.67
2022-08-17T06:44:43.133Z,42.23
2022-08-17T06:47:28.391Z,42.60
2022-08-17T06:50:05.628Z,43.12
2022-08-17T06:52:48.695Z,43.66
2022-08-17T06:55:33.190Z,44.12
2022-08-17T06:58:16.218Z,44.41
2022-08-17T07:00:47.153Z,44.79
2022-08-17T07:03:37.855Z,44.87
2022-08-17T07:06:06.775Z,44.78
2022-08-17T07:09:01.717Z,44.96
2022-08-17T07:11:39.819Z,45.60
2022-08-17T07:14:18.705Z,45.94
2022-08-17T07:16:54.827Z,46.45
2022-08-17T07:19:33.981Z,46.23
2022-08-17T07:22:03.769Z,46.51
2022-08-17T07:24:43.143Z,46.15
2022-08-17T07:27:15.576Z,45.98
2022-08-17T07:29:49.705Z,46.41
2022-08-17T07:32:20.697Z,46.18
2022-08-17T07:35:05.062Z,46.77
2022-08-17T07:37:33.272Z,47.02
2022-08-17T07:40:16.427Z,46.54
2022-08-17T07:43:01.049Z,46.66
2022-08-17T07:45:50.079Z,46.16
2022-08-17T07:48:22.283Z,45.70
2022-08-17T07:50:50.788Z,46.63
2022-08-17T07:53:24.111Z,46.08
2022-08-17T07:55:52.640Z,45.77
2022-08-17T07:58:23.409Z,45.56
2022-08-17T08:01:15.464Z,45.53
2022-08-17T08:03:46.174Z,45.79
2022-08-17T08:06:22.753Z,46.40
2022-08-17T08:08:55.198Z,46.72
2022-08-17T08:11:31.425Z,46.53
2022-08-17T08:14:38.176Z,46.73
2022-08-17T08:17:09.219Z,47.16
2022-08-17T08:19:36.220Z,47.21
2022-08-17T08:22:09.754Z,46.54
2022-08-17T08:24:57.666Z,46.54
2022-08-17T08:28:06.489Z,46.73
2022-08-17T08:30:40.288Z,46.09
2022-08-17T08:33:54.895Z,46.33
2022-08-17T08:37:14.274Z,45.74
2022-08-17T08:39:51.186Z,45.14
2022-08-17T08:42:29.516Z,44.51
2022-08-17T08:45:24.691Z,44.69
2022-08-17T08:48:57.743Z,44.03
2022-08-17T08:51:24.122Z,43.72
2022-08-17T08:54:12.697Z,43.00
2022-08-17T08:57:22.141Z,42.09
2022-08-17T09:00:11.212Z,41.99
2022-08-17T09:02:56.281Z,41.62
2022-08-17T09:05:39.723Z,40.79
2022-08-17T09:08:32.555Z,40.18
2022-08-17T09:11:07.652Z,40.35
2022-08-17T09:14:07.709Z,40.23
2022-08-17T09:17:09.345Z,39.84
2022-08-17T09:20:06.535Z,39.49
2022-08-17T09:22:42.619Z,39.15
2022-08-17T09:25:14.592Z,38.90
2022-08-17T09:27:53.190Z,38.40
2022-08-17T09:30:20.881Z,38.86
2022-08-17T09:32:56.350Z,39.25
2022-08-17T09:35:32.963Z,39.23
2022-08-17T09:38:32.338Z,38.85
2022-08-17T09:41:10.693Z,39.28
2022-08-17T09:43:58.072Z,39.34
2022-08-17T09:46:51.436Z,39.24
2022-08-17T09:49:33.512Z,39.29
2022-08-17T09:52:20.434Z,39.35
2022-08-17T09:54:48.421Z,39.07
2022-08-17T09:57:31.315Z,39.12
2022-08-17T10:00:18.682Z,39.58
2022-08-17T10:02:57.810Z,39.66
2022-08-17T10:05:46.199Z,39.99
2022-08-17T10:08:52.585Z,40.50
2022-08-17T10:11:54.680Z,40.90
2022-08-17T10:14:44.319Z,40.60
2022-08-17T10:17:39.155Z,41.22
2022-08-17T10:20:30.929Z,41.64
2022-08-17T10:23:33.653Z,41.55
2022-08-17T10:26:12.965Z,41.39
2022-08-17T10:28:59.316Z,41.19
2022-08-17T10:31:35.536Z,41.67
2022-08-17T10:34:20.882Z,42.00
2022-08-17T10:37:04.721Z,41.97
2022-08-17T10:39:52.369Z,41.43
2022-08-17T10:42:32.370Z,41.07
2022-08-17T10:45:15.389Z,41.40
2022-08-17T10:48:21.144Z,41.02
2022-08-17T10:51:00.044Z,40.35
2022-08-17T10:53:32.480Z,40.05
2022-08-17T10:56:14.111Z,40.00
2022-08-17T10:58:53.965Z,39.85
2022-08-17T11:01:32.882Z,40.18
2022-08-17T11:04:21.282Z,39.64
2022-08-17T11:07:01.950Z,39.49
2022-08-17T11:10:06.375Z,39.54
2022-08-17T11:12:42.197Z,39.70
2022-08-17T11:15:24.979Z,39.76
2022-08-17T11:18:19.186Z,40.01
2022-08-17T11:21:03.941Z,39.24
2022-08-17T11:24:01.337Z,38.98
2022-08-17T11:26:34.331Z,39.03
2022-08-17T11:29:06.270Z,38.65
2022-08-17T11:31:46.493Z,38.80
2022-08-17T11:34:26.355Z,38.73
2022-08-17T11:37:33.476Z,38.87
2022-08-17T11:40:27.857Z,38.85
2022-08-17T11:43:17.296Z,39.46
2022-08-17T11:46:02.316Z,39.33
2022-08-17T11:48:55.165Z,39.66
2022-08-17T11:51:27.807Z,39.83
2022-08-17T11:54:08.635Z,40.18
2022-08-17T11:56:51.896Z,40.13
2022-08-17T11:59:33.774Z,40.19
2022-08-17T12:02:02.138Z,40.77
2022-08-17T12:04:32.360Z,40.95
2022-08-17T12:07:19.299Z,40.84
2022-08-17T12:09:49.581Z,40.22
2022-08-17T12:12:20.171Z,40.47
2022-08-17T12:15:09.481Z,40.83
2022-08-17T12:17:41.442Z,40.69
2022-08-17T12:20:23.316Z,40.56
2022-08-17T12:23:09.511Z,40.88
2022-08-17T12:25:44.020Z,41.12
2022-08-17T12:28:32.346Z,40.92
2022-08-17T12:31:19.743Z,41.14
2022-08-17T12:33:47.863Z,41.29
2022-08-17T12:36:21.247Z,41.51
2022-08-17T12:39:13.911Z,41.85
2022-08-17T12:41:50.355Z,41.76
2022-08-17T12:44:25.084Z,41.87
2022-08-17T12:47:19.399Z,41.94
2022-08-17T12:49:53.404Z,42.28
2022-08-17T12:52:20.000Z,42.35
2022-08-17T12:54:52.555Z,42.25
2022-08-17T12:57:21.120Z,42.56
2022-08-17T12:59:53.199Z,42.68
2022-08-17T13:02:31.641Z,42.86
2022-08-17T13:05:00.680Z,42.91
2022-08-17T13:07:31.217Z,43.07
2022-08-17T13:09:58.189Z,43.24
2022-08-17T13:12:30.876Z,43.38
2022-08-17T13:14:58.617Z,43.49
2022-08-17T13:17:28.902Z,43.63
2022-08-17T13:19:55.844Z,43.40
2022-08-17T13:22:25.033Z,43.52
2022-08-17T13:24:57.001Z,43.52
2022-08-17T13:27:26.000Z,43.46
2022-08-17T13:29:57.448Z,43.44
2022-08-17T13:32:31.029Z,43.39
2022-08-17T13:35:14.462Z,43.35
2022-08-17T13:37:57.674Z,43.63
2022-08-17T13:40:38.077Z,43.38
2022-08-17T13:43:05.323Z,43.47
2022-08-17T13:45:38.880Z,43.36
2022-08-17T13:48:11.971Z,43.59
2022-08-17T13:50:47.747Z,43.27
2022-08-17T13:53:31.312Z,43.37
2022-08-17T13:56:07.418Z,43.38
2022-08-17T13:59:00.219Z,43.22
2022-08-17T14:01:39.195Z,42.97
2022-08-17T14:04:09.397Z,42.62
2022-08-17T14:06:53.021Z,42.18
2022-08-17T14:09:24.393Z,42.02
2022-08-17T14:11:53.888Z,42.16
2022-08-17T14:14:23.071Z,42.40
2022-08-17T14:16:51.207Z,42.31
2022-08-17T14:19:18.747Z,42.40
2022-08-17T14:21:46.713Z,42.57
2022-08-17T14:24:26.789Z,42.61
2022-08-17T14:26:53.821Z,42.08
2022-08-17T14:29:22.509Z,42.20
2022-08-17T14:31:54.218Z,42.23
2022-08-17T14:34:22.740Z,42.17
2022-08-17T14:36:51.507Z,42.23
2022-08-17T14:39:18.912Z,42.34
2022-08-17T14:41:45.870Z,42.44
2022-08-17T14:44:13.146Z,42.38
2022-08-17T14:46:41.411Z,42.66
2022-08-17T14:49:09.243Z,42.76
2022-08-17T14:51:43.563Z,42.81
2022-08-17T14:54:32.765Z,42.65
2022-08-17T14:57:14.827Z,42.48
2022-08-17T14:59:46.999Z,42.42
2022-08-17T15:02:13.820Z,42.38
2022-08-17T15:04:45.350Z,42.15
2022-08-17T15:07:12.429Z,42.30
2022-08-17T15:09:39.250Z,42.22
2022-08-17T15:12:06.556Z,42.38
2022-08-17T15:14:35.302Z,42.91
2022-08-17T15:17:05.643Z,42.91
2022-08-17T15:19:32.267Z,43.03
2022-08-17T15:21:58.947Z,42.62
2022-08-17T15:24:25.620Z,42.46
2022-08-17T15:26:52.527Z,42.50
2022-08-17T15:29:19.081Z,42.60
2022-08-17T15:31:45.759Z,42.82
2022-08-17T15:34:12.368Z,42.21
2022-08-17T15:36:45.496Z,41.95
2022-08-17T15:39:19.231Z,42.23
2022-08-17T15:41:47.344Z,41.81
2022-08-17T15:44:32.483Z,41.47
2022-08-17T15:47:02.019Z,41.39
2022-08-17T15:49:29.233Z,41.52
2022-08-17T15:51:56.103Z,41.27
2022-08-17T15:54:23.533Z,41.23
2022-08-17T15:56:50.638Z,41.14
2022-08-17T15:59:17.227Z,41.02
2022-08-17T16:03:01.696Z,40.66
2022-08-17T16:04:31.936Z,40.51
2022-08-17T16:06:59.827Z,41.18
2022-08-17T16:09:27.079Z,41.50
2022-08-17T16:11:55.584Z,41.06
2022-08-17T16:14:24.184Z,39.95
2022-08-17T16:16:51.000Z,38.11
2022-08-17T16:19:18.149Z,36.08
2022-08-17T16:21:44.736Z,35.40
2022-08-17T16:24:12.740Z,34.52
2022-08-17T16:26:40.988Z,33.77
2022-08-17T16:29:08.335Z,32.88
2022-08-17T16:31:36.269Z,32.05
2022-08-17T16:34:16.731Z,31.64
2022-08-17T16:36:54.978Z,31.65
2022-08-17T16:39:29.120Z,31.38
2022-08-17T16:41:57.160Z,31.39
2022-08-17T16:44:25.825Z,31.14
2022-08-17T16:46:53.351Z,30.45
2022-08-17T16:49:35.225Z,29.89
2022-08-17T16:52:04.999Z,29.86
2022-08-17T16:54:32.563Z,30.28
2022-08-17T16:56:59.131Z,30.81
2022-08-17T16:59:39.439Z,30.20
2022-08-17T17:02:12.263Z,30.34
2022-08-17T17:04:51.823Z,30.39
2022-08-17T17:07:25.726Z,30.74
2022-08-17T17:09:55.431Z,31.06
2022-08-17T17:12:34.956Z,30.56
2022-08-17T17:15:11.156Z,30.39
2022-08-17T17:17:39.837Z,30.86
2022-08-17T17:20:13.093Z,30.65
2022-08-17T17:22:48.062Z,30.73
2022-08-17T17:25:30.367Z,30.68
2022-08-17T17:28:09.279Z,30.18
2022-08-17T17:30:58.784Z,30.26
2022-08-17T17:33:38.991Z,29.48
2022-08-17T17:36:13.443Z,28.77
2022-08-17T17:38:47.470Z,28.63
2022-08-17T17:41:26.304Z,28.24
2022-08-17T17:44:01.922Z,27.94
2022-08-17T17:46:34.341Z,27.67
2022-08-17T17:49:01.060Z,27.88
2022-08-17T17:52:05.899Z,28.07
2022-08-17T17:54:49.936Z,28.11
2022-08-17T17:57:38.843Z,28.58
2022-08-17T18:00:08.777Z,28.52
2022-08-17T18:02:52.008Z,28.86
2022-08-17T18:05:37.217Z,29.27
2022-08-17T18:08:34.063Z,29.57
2022-08-17T18:11:26.606Z,29.67
2022-08-17T18:14:14.271Z,30.04
2022-08-17T18:16:42.813Z,30.22
2022-08-17T18:19:15.098Z,30.14
2022-08-17T18:21:45.764Z,30.17
2022-08-17T18:24:13.685Z,30.22
2022-08-17T18:26:57.375Z,30.27
2022-08-17T18:29:36.221Z,30.34
2022-08-17T18:32:16.059Z,30.34
2022-08-17T18:34:47.523Z,30.39
2022-08-17T18:37:31.786Z,30.55
2022-08-17T18:39:58.384Z,30.34
2022-08-17T18:42:28.037Z,30.50
2022-08-17T18:44:55.833Z,30.46
2022-08-17T18:47:29.186Z,30.24
2022-08-17T18:50:18.795Z,29.93
2022-08-17T18:52:48.346Z,30.18
2022-08-17T18:55:21.477Z,30.38
2022-08-17T18:57:55.331Z,30.47
2022-08-17T19:00:42.410Z,30.32
2022-08-17T19:03:15.046Z,30.16
2022-08-17T19:05:54.801Z,30.10
2022-08-17T19:08:23.553Z,30.23
2022-08-17T19:10:55.890Z,30.06
2022-08-17T19:13:31.573Z,29.84
2022-08-17T19:16:36.078Z,29.98
2022-08-17T19:19:14.670Z,30.10
2022-08-17T19:21:46.769Z,29.99
2022-08-17T19:24:19.813Z,29.80
2022-08-17T19:26:55.345Z,29.26
2022-08-17T19:29:36.853Z,29.54
2022-08-17T19:32:06.476Z,29.87
2022-08-17T19:34:35.449Z,29.94
2022-08-17T19:37:52.499Z,29.64
2022-08-17T19:40:53.203Z,29.49
2022-08-17T19:43:38.983Z,29.37
2022-08-17T19:46:25.838Z,29.22
2022-08-17T19:48:52.660Z,29.09
2022-08-17T19:51:33.935Z,29.13
2022-08-17T19:54:20.314Z,29.03
2022-08-17T19:56:56.740Z,29.12
2022-08-17T19:59:39.352Z,29.16
2022-08-17T20:02:20.769Z,29.21
2022-08-17T20:04:50.290Z,29.16
2022-08-17T20:07:23.817Z,28.93
2022-08-17T20:10:00.952Z,28.45
2022-08-17T20:12:33.375Z,28.63
2022-08-17T20:15:11.414Z,28.61
2022-08-17T20:17:45.554Z,28.86
2022-08-17T20:20:26.848Z,28.71
2022-08-17T20:23:12.874Z,28.85
2022-08-17T20:25:59.651Z,28.97
2022-08-17T20:28:30.433Z,29.16
2022-08-17T20:30:58.758Z,29.40
2022-08-17T20:33:38.166Z,29.12
2022-08-17T20:36:10.777Z,29.12
2022-08-17T20:38:44.604Z,29.19
2022-08-17T20:41:20.698Z,28.83
2022-08-17T20:43:58.800Z,28.90
2022-08-17T20:46:37.850Z,28.91
2022-08-17T20:49:31.905Z,29.05
2022-08-17T20:52:09.397Z,28.73
2022-08-17T20:54:44.406Z,28.50
2022-08-17T20:57:33.192Z,28.20
2022-08-17T21:00:17.144Z,28.36
2022-08-17T21:02:47.033Z,28.33
2022-08-17T21:05:34.400Z,28.72
2022-08-17T21:08:16.586Z,28.70
2022-08-17T21:10:45.438Z,28.62
2022-08-17T21:13:13.998Z,28.85
2022-08-17T21:15:49.866Z,28.61
2022-08-17T21:18:35.484Z,28.48
2022-08-17T21:21:17.966Z,28.43
2022-08-17T21:24:10.254Z,28.99
2022-08-17T21:27:07.015Z,28.59
2022-08-17T21:29:40.523Z,28.52
2022-08-17T21:32:09.498Z,28.26
2022-08-17T21:34:39.237Z,28.12
2022-08-17T21:37:23.551Z,27.80
2022-08-17T21:40:00.636Z,28.18
2022-08-17T21:42:30.195Z,28.57
2022-08-17T21:45:09.746Z,28.20
2022-08-17T21:47:40.554Z,28.08
2022-08-17T21:50:19.725Z,28.07
2022-08-17T21:52:48.813Z,28.04
2022-08-17T21:55:21.952Z,27.77
2022-08-17T21:57:52.787Z,27.91
2022-08-17T22:00:36.146Z,27.82
2022-08-17T22:03:07.229Z,27.56
2022-08-17T22:05:37.595Z,27.58
2022-08-17T22:08:16.677Z,27.49
2022-08-17T22:10:46.016Z,28.12
2022-08-17T22:13:20.244Z,28.02
2022-08-17T22:15:50.790Z,27.94
2022-08-17T22:18:24.686Z,28.05
2022-08-17T22:20:57.557Z,28.12
2022-08-17T22:23:52.425Z,28.28
2022-08-17T22:26:22.870Z,28.35
2022-08-17T22:28:58.281Z,28.45
2022-08-17T22:31:55.098Z,28.46
2022-08-17T22:34:21.651Z,29.22
2022-08-17T22:36:48.495Z,29.59
2022-08-17T22:39:15.279Z,29.65
2022-08-17T22:41:50.709Z,30.23
2022-08-17T22:44:23.200Z,29.70
2022-08-17T22:47:02.114Z,29.26
2022-08-17T22:49:53.998Z,28.96
2022-08-17T22:52:57.930Z,29.16
2022-08-17T22:55:44.782Z,28.14
2022-08-17T22:58:33.424Z,27.89
2022-08-17T23:01:28.320Z,27.45
2022-08-17T23:04:08.157Z,27.90
2022-08-17T23:06:37.703Z,29.44
2022-08-17T23:09:06.473Z,29.79
2022-08-17T23:11:49.846Z,28.70
2022-08-17T23:14:19.690Z,28.45
2022-08-17T23:16:47.729Z,29.46
2022-08-17T23:19:18.595Z,29.66
2022-08-17T23:21:45.873Z,28.48
2022-08-17T23:24:19.358Z,28.01
2022-08-17T23:26:46.143Z,27.85
2022-08-17T23:29:12.740Z,27.61
2022-08-17T23:31:39.871Z,27.39
2022-08-17T23:34:11.531Z,27.46
2022-08-17T23:36:38.504Z,27.39
2022-08-17T23:39:06.809Z,27.40
2022-08-17T23:41:39.802Z,27.50
2022-08-17T23:44:07.372Z,27.15
2022-08-17T23:46:34.644Z,27.07
2022-08-17T23:49:01.398Z,27.23
2022-08-17T23:51:31.465Z,27.27
2022-08-17T23:54:07.666Z,27.30
2022-08-17T23:56:40.058Z,27.31
2022-08-17T23:59:06.642Z,27.22
